Bookmark and Share
Track history (hours):
 

Romoe Maersk

Last reported at 2014-Apr-24 02:29 UTC. Time now 2014-Apr-24 11:29 UTC.
Position N 35°36' E 028°23'.

Length 171 m; draft 12 m.

Type: Ship. MMSI: 220209000.

NotesDate/timePositionNaut miles runAvg speedWind from/ knotsBaromVisibWave heightAir tempDewpointWater temp
2014-Apr-24 02:29N 35°36' E 028°23'7 7.5
2014-Apr-24 01:33N 35°38' E 028°15'8 7.5
2014-Apr-24 00:33N 35°40' E 028°06'7 7.5
2014-Apr-23 23:33N 35°42' E 027°57'8 7.5
2014-Apr-23 22:33N 35°45' E 027°48'8 7.6
2014-Apr-23 21:33N 35°48' E 027°40'8 7.6
2014-Apr-23 20:33N 35°52' E 027°32'8 7.7
2014-Apr-23 19:33N 35°56' E 027°24'8 7.6
2014-Apr-23 18:33N 35°60' E 027°16'24 7.6
2014-Apr-23 15:29N 36°17' E 026°56'9 9.9
2014-Apr-23 14:33N 36°24' E 026°49'1111.4
2014-Apr-23 13:33N 36°33' E 026°39'1111.4
2014-Apr-23 12:33N 36°41' E 026°30'1111.1
2014-Apr-23 11:33N 36°50' E 026°21'1211.9
2014-Apr-23 10:33N 36°59' E 026°12'1212.3
2014-Apr-23 09:33N 37°10' E 026°05'1212.2
2014-Apr-23 08:33N 37°21' E 025°57'1211.9
2014-Apr-23 07:33N 37°31' E 025°50'1512.3
2014-Apr-23 06:23N 37°45' E 025°48'1412.1
2014-Apr-23 05:11N 37°60' E 025°47'811.7
2014-Apr-23 04:31N 38°07' E 025°45'1111.7
2014-Apr-23 03:33N 38°19' E 025°44'8812.0
2014-Apr-22 20:16N 39°46' E 025°46'811.1
2014-Apr-22 19:33N 39°54' E 025°49'1311.8
2014-Apr-22 18:27N 40°01' E 026°03'1712.5
2014-Apr-22 17:06N 40°09' E 026°23'2012.8
2014-Apr-22 15:31N 40°23' E 026°41'8 6.5
2014-Apr-22 14:13N 40°28' E 026°50'4 5.5
2014-Apr-22 13:29N 40°30' E 026°55'128 6.9
2014-Apr-21 19:03N 41°26' E 029°27'2 4.3
2014-Apr-21 18:33N 41°26' E 029°30'0 0.3
2014-Apr-21 17:33N 41°26' E 029°30'0 0.2
2014-Apr-21 16:33N 41°26' E 029°29'0 0.3
2014-Apr-21 15:33N 41°26' E 029°29'0 0.4
2014-Apr-21 14:33N 41°26' E 029°29'0 0.2
2014-Apr-21 13:33N 41°26' E 029°28'0 0.2
2014-Apr-21 12:33N 41°26' E 029°28'0 0.2
2014-Apr-21 11:33N 41°26' E 029°28'0 0.3
2014-Apr-21 10:33N 41°26' E 029°27'1 0.5
2014-Apr-21 09:33N 41°26' E 029°27'1 0.8
2014-Apr-21 08:33N 41°27' E 029°26'  
2014-Apr-14 18:33N 41°28' E 028°56'  

Dump ship's entire track history

sailing weather and tide predictions

Romoe Maersk — OXLC2 — position and weather